Flight Track Log - Related Links

Times and Time Zones

All times are in EDT time to prevent confusion due to time zone crossing. See the UPS1337 flight status page for this flight to view local times or setup timezone preferences in your user account.

Time Position Orientation Groundspeed Altitude Reporting Facility
EDT Latitude Longitude Course Direction KTS MPH feet Rate Location/Type
Fri 09:39:59 PM 27.9167 -82.7000 16° North 171 197 1,000  Level Tampa TRACON
Fri 09:40:41 PM 27.9667 -82.6833 16° North 194 223 2,600 3,081 Climbing Tampa TRACON
Fri 09:42:27 PM 28.0747 -82.6503 15° North 256 295 8,600 3,145 Climbing Jacksonville Center
Fri 09:43:27 PM 28.1581 -82.6431 North 271 312 11,300 2,500 Climbing Jacksonville Center
Fri 09:44:27 PM 28.2622 -82.6381 North 318 366 13,600 2,700 Climbing Jacksonville Center
Fri 09:45:27 PM 28.3731 -82.6353 North 370 426 16,700 2,850 Climbing Jacksonville Center
Fri 09:46:27 PM 28.4897 -82.6303 North 399 459 19,300 2,500 Climbing Jacksonville Center
Fri 09:47:27 PM 28.6108 -82.6253 North 413 475 21,700 2,300 Climbing Jacksonville Center
Fri 09:48:27 PM 28.7297 -82.6178 North 427 491 23,900 2,000 Climbing Jacksonville Center
Fri 09:49:27 PM 28.8614 -82.6153 North 444 511 25,700 1,750 Climbing Jacksonville Center
Fri 09:50:27 PM 28.9928 -82.6100 North 456 525 27,400 1,800 Climbing Jacksonville Center
Fri 09:51:27 PM 29.1306 -82.6050 North 470 541 29,300 1,300 Climbing Jacksonville Center
Fri 09:52:27 PM 29.2683 -82.5997 North 481 554 30,000 1,400 Climbing Jacksonville Center
Fri 09:53:27 PM 29.4039 -82.5947 North 481 554 32,100 1,650 Climbing Jacksonville Center
Fri 09:54:27 PM 29.5397 -82.5869 North 481 554 33,300 1,350 Climbing Jacksonville Center
Fri 09:55:27 PM 29.6775 -82.5842 North 481 554 34,800 850 Climbing Jacksonville Center
Fri 09:56:27 PM 29.8131 -82.5789 North 481 554 35,000 100 Climbing Jacksonville Center
Fri 09:57:27 PM 29.9489 -82.5761 North 481 554 35,000 -50 Level Jacksonville Center
Fri 09:58:27 PM 30.0697 -82.5711 North 481 554 34,900  Descending Jacksonville Center
Fri 09:59:27 PM 30.2139 -82.5225 16° North 481 554 35,000 50 Climbing Jacksonville Center
Fri 10:00:27 PM 30.3453 -82.4689 19° North 486 559 35,000  Level Jacksonville Center
Fri 10:01:27 PM 30.4786 -82.4178 18° North 491 565 35,000  Level Jacksonville Center
Fri 10:02:27 PM 30.6119 -82.3639 19° North 496 571 35,000  Level Jacksonville Center
Fri 10:03:27 PM 30.7433 -82.3125 19° North 501 577 35,000  Level Jacksonville Center
Fri 10:04:27 PM 30.8767 -82.2633 18° North 501 577 35,000 -50 Level Jacksonville Center
Fri 10:05:27 PM 31.0122 -82.2092 19° North 501 577 34,900  Descending Jacksonville Center
Fri 10:06:27 PM 31.1414 -82.1572 19° North 501 577 35,000 50 Climbing Jacksonville Center
Fri 10:07:27 PM 31.2767 -82.1050 18° North 501 577 35,000  Level Jacksonville Center
Fri 10:08:27 PM 31.4122 -82.0503 19° North 501 577 35,000  Level Jacksonville Center
Fri 10:09:27 PM 31.5453 -81.9978 19° North 501 577 35,000  Level Jacksonville Center
Fri 10:10:27 PM 31.6786 -81.9453 19° North 501 577 35,000  Level Jacksonville Center
Fri 10:11:27 PM 31.7994 -81.8978 18° North 501 577 35,000  Level Jacksonville Center
Fri 10:12:27 PM 31.9472 -81.8397 18° North 501 577 35,000  Level Jacksonville Center
Fri 10:13:27 PM 32.0803 -81.7867 19° North 502 578 35,000  Level Jacksonville Center
Fri 10:14:27 PM 32.2008 -81.7386 19° North 502 578 35,000  Level Jacksonville Center
Fri 10:15:27 PM 32.3486 -81.6778 19° North 502 578 35,000  Level Jacksonville Center
Fri 10:16:27 PM 32.4839 -81.6242 18° North 507 583 35,000  Level Jacksonville Center
Fri 10:17:27 PM 32.6022 -81.5758 19° North 500 575 35,000  Level Jacksonville Center
Fri 10:18:27 PM 32.7417 -81.5194 19° North 506 582 35,000 -50 Level Jacksonville Center
Fri 10:19:27 PM 32.8744 -81.4631 20° North 506 582 34,900 -50 Descending Jacksonville Center
Fri 10:20:27 PM 33.0094 -81.4089 19° North 501 577 34,900 50 Level Jacksonville Center
Fri 10:21:27 PM 33.1447 -81.3544 19° North 501 577 35,000 50 Climbing Jacksonville Center
Fri 10:22:27 PM 33.2794 -81.2975 19° North 501 577 35,000 -50 Level Jacksonville Center
Fri 10:23:27 PM 33.4125 -81.2428 19° North 501 577 34,900 -477 Descending Jacksonville Center
Fri 10:28:44 PM 34.0985 -80.7987 41° Northeast 525 604 32,000 -583 Descending FlightAware ADS-B
Fri 10:29:17 PM 34.1572 -80.7367 42° Northeast 504 580 31,500 -844 Descending FlightAware ADS-B
Fri 10:29:48 PM 34.2149 -80.6913 25° Northeast 481 554 31,100 -960 Descending FlightAware ADS-B
Fri 10:30:32 PM 34.3037 -80.6419 25° Northeast 476 548 30,300 -1,297 Descending FlightAware ADS-B
Fri 10:31:39 PM 34.4364 -80.5677 25° Northeast 474 545 28,700 -1,357 Descending FlightAware ADS-B
Fri 10:32:27 PM 34.5083 -80.4914 25° Northeast 458 527 27,700 -1,610 Descending Jacksonville Center
Fri 10:34:23 PM 34.6433 -80.2772 53° Northeast 410 472 24,300 -1,575 Descending Washington Center
Fri 10:35:26 PM 34.7167 -80.1628 52° Northeast 423 487 23,000 -650 Descending Washington Center
Fri 10:36:23 PM 34.7917 -80.0531 50° Northeast 423 487 23,000  Level Washington Center
Fri 10:37:24 PM 34.8894 -79.9497 41° Northeast 423 487 23,000 -100 Level Washington Center
Fri 10:38:23 PM 34.9722 -79.8528 44° Northeast 418 481 22,800 -1,200 Descending Washington Center
Fri 10:39:24 PM 35.0589 -79.7608 41° Northeast 413 475 20,600 -2,132 Descending Washington Center
Fri 10:40:24 PM 35.1392 -79.6711 42° Northeast 401 461 18,500 -2,000 Descending Washington Center
Fri 10:41:24 PM 35.2192 -79.5861 41° Northeast 382 440 16,600 -1,884 Descending Washington Center
Fri 10:42:25 PM 35.2983 -79.5289 31° Northeast 366 421 14,700 -2,017 Descending Washington Center
Fri 10:43:20 PM 35.3794 -79.4719 30° Northeast 349 402 12,700 -1,878 Descending Washington Center
Fri 10:44:20 PM 35.4647 -79.4172 28° Northeast 344 396 11,100 -850 Descending Washington Center
Fri 10:45:20 PM 35.5403 -79.3367 41° Northeast 350 403 11,000 -425 Descending Washington Center
Fri 10:46:13 PM 35.5947 -79.2653 47° Northeast 332 382 10,300 -738 Descending Washington Center
Fri 10:46:25 PM 35.6078 -79.2506 43° Northeast 333 383 10,200 -1,279 Descending Washington Center
Fri 10:47:14 PM 35.6578 -79.1864 46° Northeast 295 339 9,000 -1,211 Descending Washington Center
Fri 10:48:14 PM 35.7119 -79.1172 46° Northeast 281 323 8,000 -496 Descending Washington Center
Fri 10:49:15 PM 35.7681 -79.0506 44° Northeast 282 325 8,000  Level Washington Center
Fri 10:50:17 PM 35.8244 -78.9786 46° Northeast 284 327 8,000 -629 Level Washington Center
Fri 10:51:19 PM 35.8847 -78.9144 41° Northeast 284 327 6,700 -1,785 Descending Washington Center
Fri 10:52:18 PM 35.9489 -78.8506 39° Northeast 303 349 4,400 -1,850 Descending Washington Center
Fri 10:53:19 PM 36.0089 -78.7914 39° Northeast 259 298 3,000 -1,082 Descending Washington Center
Fri 10:54:20 PM 36.0544 -78.7342 45° Northeast 231 266 2,200 -417 Descending Washington Center
Fri 10:55:14 PM 36.0264 -78.6867 126° Southeast 183 211 2,200  Level Washington Center
Fri 10:56:07 PM 35.9850 -78.6697 162° South 169 194 2,200 -53 Level Washington Center
Fri 10:57:08 PM 35.9550 -78.7044 223° Southwest 155 178 2,100 -347 Descending Washington Center
Fri 10:58:08 PM 35.9292 -78.7344 223° Southwest 110 127 1,500 -537 Descending Washington Center
Fri 10:59:11 PM 35.9097 -78.7567 223° Southwest 96 110 1,000 -476 Descending Washington Center
Fri 11:01:00 PM 35.8776 -78.7875 North  Level Estimated
Fri 11:08:00 PM 35.8776 -78.7875 North  Level Estimated

Login

Don't have an account? Register now (free) for customized features, flight alerts, and more!